Aerial Acres, CA

9:36 PM PST on December 17, 2014 (GMT -0800)
Edwards Air Force Base | Change Station
CLOSE
Current Station
Airport
Location: Edwards AFB,
Elevation: 2313 ft
Nearby Weather Stations

Elev 2313 ft 34.91 °N, 117.88 °W | Updated 38 minutes ago

Overcast
Overcast
43 °F
Feels Like 38 °F
N
8
Wind Variable Wind from WSW

Today
High -- | Low -- °F
--% Chance of Precip.
Yesterday
High -- | Low -- °F
Precip. -- in
6:53 AM 4:42 PM
Waning Crescent, 17% visible
Pressure 30.09 in
Visibility 50.0 miles
Clouds Scattered Clouds 11000 ft
Mostly Cloudy 16000 ft
Windchill 38 °F
Dew Point 37 °F
Humidity 80%
Rainfall 0.17 in
Snow Depth Not available.
UV 0 out of 12
Pollen 1.50 out of 12
Air Quality Not available.
Flu Activity Not available.
METAR KEDW 180458Z 25007KT 50SM SCT110 BKN160 06/03 A3008 RMK AO2A SLP189 T00610029

More Conditions Fewer Conditions

Pressure 30.09 in
Visibility 50.0 miles
Clouds Scattered Clouds 11000 ft
Mostly Cloudy 16000 ft
Windchill 38 °F
Dew Point 37 °F
Humidity 80%
Rainfall 0.17 in
Snow Depth Not available.
UV 0 out of 12
Pollen 1.50 out of 12
Air Quality Not available.
Flu Activity Not available.
METAR KEDW 180458Z 25007KT 50SM SCT110 BKN160 06/03 A3008 RMK AO2A SLP189 T00610029

More Conditions Fewer Conditions

10-Day Weather Forecast

Almanac

Astronomy

Dec. 17, 2014 Rise Set
Actual Time
Civil Twilight
Nautical Twilight
Astronomical Twilight
Moon
Length of Visible Light
Length of Day
Tomorrow will be .
, % of the Moon is Illuminated

Today's Extremes

State Highs State Lows

Community

WunderPhotos

Upload Photos

1,778,895 photos uploaded!

WunderBlogs® & News

Nearby

Air Quality

  Air Quality AQ Index Pollutant
Not available.

Snow Depth

Station Depth Elevation

Earthquake Activity

City Distance Mag. Time & Date
Minimum magnitude displayed is 2.5.

Coastal Water Temperatures

Place Temperature

Nearby Weather Stations